createdAt,value
2023-01-18T00:01:36.104Z,1.03
2023-01-18T00:04:02.968Z,0.83
2023-01-18T00:06:29.886Z,1.50
2023-01-18T00:08:56.654Z,1.73
2023-01-18T00:11:23.415Z,1.10
2023-01-18T00:13:50.187Z,1.07
2023-01-18T00:16:19.416Z,1.20
2023-01-18T00:18:55.109Z,1.10
2023-01-18T00:21:22.739Z,1.20
2023-01-18T00:23:49.477Z,0.90
2023-01-18T00:26:16.329Z,1.23
2023-01-18T00:28:43.194Z,2.17
2023-01-18T00:31:17.994Z,1.47
2023-01-18T00:33:46.640Z,2.33
2023-01-18T00:36:14.829Z,1.63
2023-01-18T00:38:41.985Z,1.80
2023-01-18T00:41:08.749Z,2.07
2023-01-18T00:43:41.332Z,2.23
2023-01-18T00:46:13.400Z,1.80
2023-01-18T00:48:42.177Z,1.93
2023-01-18T00:51:11.132Z,2.70
2023-01-18T00:53:38.393Z,2.13
2023-01-18T00:56:24.203Z,2.00
2023-01-18T00:58:52.188Z,2.50
2023-01-18T01:01:19.163Z,2.17
2023-01-18T01:04:04.378Z,1.70
2023-01-18T01:06:46.228Z,2.20
2023-01-18T01:09:26.047Z,1.43
2023-01-18T01:12:12.867Z,1.20
2023-01-18T01:15:01.177Z,1.40
2023-01-18T01:17:51.421Z,1.90
2023-01-18T01:20:37.355Z,1.87
2023-01-18T01:23:32.346Z,2.17
2023-01-18T01:26:36.761Z,2.13
2023-01-18T01:29:03.791Z,2.20
2023-01-18T01:31:30.631Z,2.00
2023-01-18T01:33:57.414Z,1.60
2023-01-18T01:36:28.430Z,1.77
2023-01-18T01:39:13.891Z,1.47
2023-01-18T01:41:40.684Z,1.47
2023-01-18T01:44:20.094Z,1.23
2023-01-18T01:47:06.835Z,1.27
2023-01-18T01:49:42.892Z,1.27
2023-01-18T01:52:12.528Z,1.60
2023-01-18T01:54:53.565Z,1.33
2023-01-18T01:57:28.968Z,1.00
2023-01-18T02:00:09.338Z,1.03
2023-01-18T02:02:40.818Z,1.30
2023-01-18T02:05:09.677Z,0.67
2023-01-18T02:07:36.720Z,0.53
2023-01-18T02:10:04.887Z,1.13
2023-01-18T02:12:33.248Z,0.50
2023-01-18T02:15:00.523Z,0.57
2023-01-18T02:17:52.491Z,1.47
2023-01-18T02:20:41.073Z,0.53
2023-01-18T02:23:29.446Z,0.80
2023-01-18T02:26:24.169Z,1.17
2023-01-18T02:29:17.496Z,0.50
2023-01-18T02:32:16.978Z,0.40
2023-01-18T02:34:46.665Z,0.73
2023-01-18T02:37:16.084Z,0.30
2023-01-18T02:40:02.920Z,0.50
2023-01-18T02:42:50.068Z,0.50
2023-01-18T02:45:41.484Z,0.40
2023-01-18T02:48:09.501Z,0.40
2023-01-18T02:50:36.682Z,0.93
2023-01-18T02:53:21.827Z,0.50
2023-01-18T02:56:10.083Z,0.60
2023-01-18T02:58:45.198Z,0.53
2023-01-18T03:01:47.823Z,0.50
2023-01-18T03:04:26.501Z,0.47
2023-01-18T03:07:23.817Z,0.70
2023-01-18T03:09:51.656Z,0.80
2023-01-18T03:12:47.182Z,0.80
2023-01-18T03:15:20.869Z,0.40
2023-01-18T03:17:59.679Z,0.30
2023-01-18T03:20:52.371Z,0.70
2023-01-18T03:23:39.873Z,0.90
2023-01-18T03:26:10.046Z,0.73
2023-01-18T03:29:04.042Z,0.80
2023-01-18T03:32:01.776Z,0.70
2023-01-18T03:34:42.996Z,1.50
2023-01-18T03:37:30.568Z,0.47
2023-01-18T03:40:08.242Z,0.40
2023-01-18T03:42:43.906Z,0.60
2023-01-18T03:45:55.674Z,0.40
2023-01-18T03:48:22.555Z,0.37
2023-01-18T03:50:56.196Z,0.53
2023-01-18T03:53:39.290Z,0.50
2023-01-18T03:56:43.984Z,0.47
2023-01-18T03:59:10.819Z,0.30
2023-01-18T04:01:37.923Z,0.87
2023-01-18T04:04:04.789Z,0.40
2023-01-18T04:09:17.271Z,0.60
2023-01-18T04:11:44.215Z,0.50
2023-01-18T04:14:11.035Z,0.40
2023-01-18T04:16:37.764Z,0.40
2023-01-18T04:19:23.048Z,0.30
2023-01-18T04:21:49.867Z,0.30
2023-01-18T04:24:17.250Z,0.53
2023-01-18T04:26:44.024Z,0.30
2023-01-18T04:29:10.935Z,0.33
2023-01-18T04:31:37.847Z,0.20
2023-01-18T04:34:04.609Z,0.20
2023-01-18T04:36:31.641Z,0.20
2023-01-18T04:38:59.383Z,0.30
2023-01-18T04:41:26.141Z,0.20
2023-01-18T04:43:52.913Z,0.30
2023-01-18T04:46:19.802Z,0.40
2023-01-18T04:48:50.620Z,0.30
2023-01-18T04:51:37.481Z,0.30
2023-01-18T04:54:04.277Z,0.40
2023-01-18T04:56:31.248Z,0.47
2023-01-18T04:58:57.983Z,0.30
2023-01-18T05:01:25.255Z,0.40
2023-01-18T05:03:56.326Z,0.60
2023-01-18T05:06:24.588Z,0.40
2023-01-18T05:08:52.515Z,0.40
2023-01-18T05:11:21.068Z,0.50
2023-01-18T05:13:47.839Z,0.67
2023-01-18T05:16:33.332Z,0.70
2023-01-18T05:19:00.160Z,0.57
2023-01-18T05:21:28.662Z,0.53
2023-01-18T05:23:55.377Z,0.80
2023-01-18T05:26:24.929Z,0.80
2023-01-18T05:28:57.264Z,0.70
2023-01-18T05:31:24.324Z,1.00
2023-01-18T05:33:51.472Z,0.50
2023-01-18T05:36:18.225Z,0.80
2023-01-18T05:38:46.133Z,0.50
2023-01-18T05:41:12.901Z,0.77
2023-01-18T05:43:40.527Z,0.50
2023-01-18T05:46:07.381Z,1.03
2023-01-18T05:48:34.167Z,0.77
2023-01-18T05:51:00.970Z,1.33
2023-01-18T05:53:27.690Z,0.80
2023-01-18T05:56:02.802Z,1.67
2023-01-18T05:58:29.607Z,0.80
2023-01-18T06:00:57.753Z,1.30
2023-01-18T06:03:25.461Z,0.90
2023-01-18T06:05:52.442Z,1.10
2023-01-18T06:08:20.180Z,1.10
2023-01-18T06:10:55.172Z,0.70
2023-01-18T06:13:22.808Z,0.87
2023-01-18T06:15:49.905Z,1.13
2023-01-18T06:18:16.704Z,0.70
2023-01-18T06:21:03.031Z,0.87
2023-01-18T06:23:30.695Z,0.60
2023-01-18T06:25:57.539Z,1.10
2023-01-18T06:28:24.762Z,0.80
2023-01-18T06:30:55.444Z,0.93
2023-01-18T06:33:23.400Z,0.63
2023-01-18T06:35:50.191Z,1.30
2023-01-18T06:38:17.076Z,0.93
2023-01-18T06:40:43.828Z,0.87
2023-01-18T06:43:14.160Z,2.10
2023-01-18T06:45:41.648Z,0.70
2023-01-18T06:48:08.747Z,0.80
2023-01-18T06:50:35.600Z,1.17
2023-01-18T06:53:02.385Z,1.23
2023-01-18T06:55:29.159Z,0.60
2023-01-18T06:57:57.130Z,0.90
2023-01-18T07:03:10.681Z,0.90
2023-01-18T07:05:37.444Z,0.90
2023-01-18T07:08:04.684Z,0.60
2023-01-18T07:10:31.440Z,0.87
2023-01-18T07:12:58.437Z,0.97
2023-01-18T07:15:25.369Z,0.87
2023-01-18T07:17:52.110Z,0.70
2023-01-18T07:20:19.981Z,0.80
2023-01-18T07:22:52.688Z,0.60
2023-01-18T07:25:20.764Z,1.07
2023-01-18T07:27:49.068Z,1.00
2023-01-18T07:30:16.771Z,0.77
2023-01-18T07:32:52.152Z,0.90
2023-01-18T07:35:22.203Z,0.33
2023-01-18T07:37:50.875Z,0.70
2023-01-18T07:40:17.936Z,0.87
2023-01-18T07:43:22.444Z,0.60
2023-01-18T07:45:54.242Z,0.53
2023-01-18T07:48:21.978Z,0.70
2023-01-18T07:50:55.545Z,0.60
2023-01-18T07:53:23.251Z,0.93
2023-01-18T07:55:50.896Z,0.70
2023-01-18T07:58:18.982Z,1.97
2023-01-18T08:00:46.631Z,1.10
2023-01-18T08:03:15.132Z,1.20
2023-01-18T08:05:45.511Z,1.20
2023-01-18T08:08:15.949Z,1.30
2023-01-18T08:10:43.686Z,1.27
2023-01-18T08:13:10.760Z,1.10
2023-01-18T08:15:39.057Z,0.70
2023-01-18T08:18:06.989Z,0.77
2023-01-18T08:20:34.025Z,0.90
2023-01-18T08:23:01.734Z,1.10
2023-01-18T08:25:30.324Z,0.87
2023-01-18T08:28:00.595Z,0.60
2023-01-18T08:30:30.313Z,1.10
2023-01-18T08:33:00.321Z,0.83
2023-01-18T08:35:30.284Z,0.50
2023-01-18T08:37:59.263Z,1.53
2023-01-18T08:40:26.304Z,1.13
2023-01-18T08:43:01.585Z,0.70
2023-01-18T08:45:28.941Z,0.60
2023-01-18T08:48:07.612Z,0.90
2023-01-18T08:50:35.914Z,1.27
2023-01-18T08:53:04.104Z,0.77
2023-01-18T08:55:49.886Z,0.70
2023-01-18T08:58:16.908Z,0.70
2023-01-18T09:00:45.742Z,0.60
2023-01-18T09:03:13.274Z,0.83
2023-01-18T09:05:40.369Z,0.60
2023-01-18T09:08:07.182Z,0.60
2023-01-18T09:10:37.495Z,0.83
2023-01-18T09:13:24.052Z,0.60
2023-01-18T09:16:28.764Z,0.47
2023-01-18T09:18:56.444Z,0.30
2023-01-18T09:21:23.552Z,0.60
2023-01-18T09:23:51.021Z,0.53
2023-01-18T09:26:20.595Z,0.40
2023-01-18T09:28:51.092Z,0.53
2023-01-18T09:31:19.254Z,0.77
2023-01-18T09:33:53.229Z,0.40
2023-01-18T09:36:23.913Z,0.50
2023-01-18T09:38:50.759Z,0.40
2023-01-18T09:41:35.154Z,0.40
2023-01-18T09:44:16.790Z,0.40
2023-01-18T09:46:45.617Z,0.43
2023-01-18T09:49:19.952Z,0.30
2023-01-18T09:52:24.779Z,0.60
2023-01-18T09:55:24.718Z,0.53
2023-01-18T09:58:29.218Z,0.67
2023-01-18T10:01:21.377Z,0.50
2023-01-18T10:03:55.222Z,0.43
2023-01-18T10:06:26.862Z,0.40
2023-01-18T10:09:06.421Z,0.47
2023-01-18T10:11:50.456Z,0.93
2023-01-18T10:14:35.776Z,1.07
2023-01-18T10:17:09.943Z,0.60
2023-01-18T10:19:36.773Z,0.73
2023-01-18T10:22:08.644Z,0.73
2023-01-18T10:25:13.421Z,0.77
2023-01-18T10:27:58.399Z,0.73
2023-01-18T10:30:36.014Z,0.57
2023-01-18T10:33:14.570Z,1.53
2023-01-18T10:35:48.006Z,1.03
2023-01-18T10:38:19.273Z,1.10
2023-01-18T10:41:13.266Z,1.10
2023-01-18T10:43:40.218Z,0.83
2023-01-18T10:48:59.787Z,0.47
2023-01-18T10:51:37.324Z,0.20
2023-01-18T10:54:19.259Z,0.40
2023-01-18T10:56:46.057Z,0.30
2023-01-18T10:59:26.386Z,0.60
2023-01-18T11:01:56.939Z,0.50
2023-01-18T11:04:28.901Z,0.67
2023-01-18T11:07:03.775Z,1.17
2023-01-18T11:09:51.673Z,1.37
2023-01-18T11:12:41.481Z,1.63
2023-01-18T11:15:14.506Z,1.03
2023-01-18T11:17:43.593Z,1.27
2023-01-18T11:20:16.832Z,0.93
2023-01-18T11:23:06.116Z,2.03
2023-01-18T11:25:58.966Z,1.17
2023-01-18T11:28:37.884Z,0.80
2023-01-18T11:31:15.203Z,1.27
2023-01-18T11:34:07.094Z,1.40
2023-01-18T11:36:45.037Z,2.63
2023-01-18T11:39:29.747Z,1.80
2023-01-18T11:42:20.572Z,1.90
2023-01-18T11:44:57.983Z,1.30
2023-01-18T11:48:05.642Z,2.20
2023-01-18T11:50:42.295Z,2.50
2023-01-18T11:53:12.051Z,2.90
2023-01-18T11:55:56.289Z,3.20
2023-01-18T11:58:28.500Z,3.87
2023-01-18T12:01:23.492Z,4.40
2023-01-18T12:04:23.161Z,2.53
2023-01-18T12:06:56.101Z,4.63
2023-01-18T12:09:35.079Z,3.40
2023-01-18T12:12:26.567Z,4.57
2023-01-18T12:15:00.339Z,4.90
2023-01-18T12:17:36.067Z,15.13
2023-01-18T12:20:20.070Z,3.70
2023-01-18T12:23:05.640Z,2.90
2023-01-18T12:26:12.150Z,6.13
2023-01-18T12:28:54.607Z,5.23
2023-01-18T12:32:04.355Z,4.53
2023-01-18T12:34:44.722Z,5.67
2023-01-18T12:37:34.157Z,6.83
2023-01-18T12:40:25.050Z,3.17
2023-01-18T12:43:03.807Z,2.43
2023-01-18T12:45:39.071Z,3.40
2023-01-18T12:48:27.547Z,3.70
2023-01-18T12:50:57.357Z,4.37
2023-01-18T12:53:41.833Z,2.80
2023-01-18T12:56:30.972Z,2.57
2023-01-18T12:59:01.276Z,2.97
2023-01-18T13:01:33.927Z,2.67
2023-01-18T13:04:08.557Z,2.63
2023-01-18T13:06:38.444Z,3.53
2023-01-18T13:09:15.316Z,4.10
2023-01-18T13:12:03.759Z,2.77
2023-01-18T13:17:31.877Z,3.27
2023-01-18T13:20:13.062Z,2.87
2023-01-18T13:22:54.744Z,2.70
2023-01-18T13:25:33.083Z,1.93
2023-01-18T13:28:01.257Z,1.90
2023-01-18T13:30:32.724Z,9.23
2023-01-18T13:33:00.454Z,7.17
2023-01-18T13:35:33.236Z,7.90
2023-01-18T13:38:10.032Z,3.67
2023-01-18T13:40:41.906Z,4.30
2023-01-18T13:43:32.879Z,3.53
2023-01-18T13:46:21.847Z,3.37
2023-01-18T13:48:55.250Z,5.10
2023-01-18T13:51:44.723Z,3.43
2023-01-18T13:54:17.053Z,3.47
2023-01-18T13:57:02.063Z,2.30
2023-01-18T13:59:34.064Z,3.20
2023-01-18T14:02:14.777Z,3.07
2023-01-18T14:04:41.655Z,2.67
2023-01-18T14:07:22.747Z,3.07
2023-01-18T14:09:50.866Z,1.10
2023-01-18T14:12:53.539Z,1.60
2023-01-18T14:15:30.698Z,1.03
2023-01-18T14:17:59.321Z,1.80
2023-01-18T14:20:45.027Z,1.30
2023-01-18T14:23:48.100Z,1.60
2023-01-18T14:26:18.453Z,1.57
2023-01-18T14:28:54.758Z,1.20
2023-01-18T14:31:34.391Z,2.27
2023-01-18T14:34:23.446Z,3.33
2023-01-18T14:36:50.436Z,2.10
2023-01-18T14:39:18.088Z,2.53
2023-01-18T14:41:50.276Z,4.13
2023-01-18T14:44:21.214Z,3.33
2023-01-18T14:46:54.226Z,7.20
2023-01-18T14:49:25.201Z,6.57
2023-01-18T14:51:53.384Z,7.23
2023-01-18T14:54:24.317Z,5.90
2023-01-18T14:56:51.279Z,5.83
2023-01-18T14:59:27.624Z,2.80
2023-01-18T15:01:58.174Z,3.27
2023-01-18T15:04:45.780Z,2.17
2023-01-18T15:07:33.953Z,2.17
2023-01-18T15:10:00.877Z,2.47
2023-01-18T15:12:31.694Z,1.10
2023-01-18T15:15:06.803Z,1.60
2023-01-18T15:17:36.483Z,1.23
2023-01-18T15:20:08.375Z,1.50
2023-01-18T15:22:40.474Z,1.80
2023-01-18T15:25:30.759Z,1.30
2023-01-18T15:28:09.028Z,1.40
2023-01-18T15:30:51.296Z,1.70
2023-01-18T15:33:20.585Z,1.70
2023-01-18T15:35:53.172Z,1.20
2023-01-18T15:38:20.552Z,1.13
2023-01-18T15:41:14.892Z,1.00
2023-01-18T15:43:44.116Z,1.50
2023-01-18T15:46:14.076Z,1.37
2023-01-18T15:48:48.733Z,1.20
2023-01-18T15:51:15.721Z,1.77
2023-01-18T15:53:52.425Z,1.20
2023-01-18T15:56:30.744Z,1.50
2023-01-18T15:59:01.160Z,4.83
2023-01-18T16:01:34.011Z,4.90
2023-01-18T16:04:21.330Z,6.73
2023-01-18T16:06:48.486Z,9.03
2023-01-18T16:09:16.055Z,8.60
2023-01-18T16:11:52.162Z,7.50
2023-01-18T16:14:28.081Z,4.47
2023-01-18T16:17:15.747Z,2.23
2023-01-18T16:19:46.885Z,1.53
2023-01-18T16:22:21.123Z,1.70
2023-01-18T16:24:55.801Z,2.03
2023-01-18T16:27:25.758Z,2.53
2023-01-18T16:32:43.938Z,1.07
2023-01-18T16:35:13.031Z,1.47
2023-01-18T16:37:42.021Z,1.13
2023-01-18T16:40:09.732Z,1.17
2023-01-18T16:43:01.286Z,0.97
2023-01-18T16:45:30.299Z,1.17
2023-01-18T16:47:57.583Z,1.80
2023-01-18T16:50:24.573Z,1.30
2023-01-18T16:52:51.377Z,1.67
2023-01-18T16:55:18.292Z,1.20
2023-01-18T16:57:45.282Z,1.00
2023-01-18T17:00:23.972Z,1.67
2023-01-18T17:02:51.819Z,1.30
2023-01-18T17:05:18.926Z,6.07
2023-01-18T17:07:46.113Z,2.20
2023-01-18T17:10:20.385Z,2.63
2023-01-18T17:12:47.562Z,1.80
2023-01-18T17:15:14.430Z,2.00
2023-01-18T17:17:43.289Z,1.10
2023-01-18T17:20:29.014Z,1.20
2023-01-18T17:23:14.448Z,2.33
2023-01-18T17:25:41.446Z,1.40
2023-01-18T17:28:10.972Z,1.10
2023-01-18T17:30:38.333Z,1.77
2023-01-18T17:33:05.157Z,1.73
2023-01-18T17:35:32.599Z,1.53
2023-01-18T17:38:05.538Z,0.90
2023-01-18T17:40:40.160Z,1.20
2023-01-18T17:43:32.130Z,1.30
2023-01-18T17:46:02.544Z,1.00
2023-01-18T17:48:29.772Z,0.90
2023-01-18T17:53:42.058Z,1.40
2023-01-18T17:56:10.201Z,1.50
2023-01-18T17:58:37.130Z,1.17
2023-01-18T18:01:06.900Z,1.60
2023-01-18T18:03:33.711Z,0.90
2023-01-18T18:06:02.305Z,1.20
2023-01-18T18:08:29.508Z,1.03
2023-01-18T18:10:56.398Z,1.00
2023-01-18T18:13:23.385Z,0.90
2023-01-18T18:15:50.338Z,1.30
2023-01-18T18:18:24.169Z,1.30
2023-01-18T18:21:03.159Z,1.73
2023-01-18T18:23:30.564Z,2.67
2023-01-18T18:25:58.913Z,2.37
2023-01-18T18:31:16.276Z,1.80
2023-01-18T18:33:43.165Z,1.43
2023-01-18T18:36:09.972Z,2.17
2023-01-18T18:38:38.110Z,3.40
2023-01-18T18:41:06.365Z,3.17
2023-01-18T18:43:33.176Z,1.10
2023-01-18T18:45:59.890Z,1.07
2023-01-18T18:48:26.683Z,0.60
2023-01-18T18:50:54.053Z,0.60
2023-01-18T18:53:23.850Z,0.47
2023-01-18T18:56:00.293Z,1.20
2023-01-18T18:58:27.274Z,0.77
2023-01-18T19:00:54.175Z,0.97
2023-01-18T19:03:22.572Z,0.70
2023-01-18T19:05:49.430Z,0.50
2023-01-18T19:08:16.163Z,0.80
2023-01-18T19:10:42.986Z,0.80
2023-01-18T19:13:10.095Z,0.33
2023-01-18T19:15:36.960Z,0.47
2023-01-18T19:18:03.864Z,0.70
2023-01-18T19:23:17.790Z,0.30
2023-01-18T19:25:44.879Z,0.60
2023-01-18T19:28:11.754Z,0.63
2023-01-18T19:30:40.972Z,0.90
2023-01-18T19:33:08.343Z,1.93
2023-01-18T19:35:43.611Z,0.67
2023-01-18T19:38:10.782Z,13.00
2023-01-18T19:40:37.575Z,1.53
2023-01-18T19:43:04.439Z,1.60
2023-01-18T19:45:31.945Z,0.90
2023-01-18T19:48:00.671Z,0.93
2023-01-18T19:50:29.467Z,0.90
2023-01-18T19:52:56.771Z,0.70
2023-01-18T19:55:25.104Z,1.17
2023-01-18T19:57:55.340Z,0.80
2023-01-18T20:00:22.606Z,0.83
2023-01-18T20:02:49.489Z,0.70
2023-01-18T20:05:16.495Z,0.90
2023-01-18T20:07:43.419Z,0.83
2023-01-18T20:10:10.845Z,2.00
2023-01-18T20:12:38.455Z,2.17
2023-01-18T20:15:06.261Z,0.87
2023-01-18T20:17:34.436Z,1.27
2023-01-18T20:20:01.238Z,1.10
2023-01-18T20:22:28.071Z,1.20
2023-01-18T20:24:55.066Z,1.17
2023-01-18T20:27:21.921Z,0.70
2023-01-18T20:29:49.496Z,1.30
2023-01-18T20:32:17.998Z,0.60
2023-01-18T20:34:46.991Z,1.27
2023-01-18T20:37:15.556Z,1.00
2023-01-18T20:39:42.531Z,1.00
2023-01-18T20:42:09.463Z,1.30
2023-01-18T20:44:36.418Z,0.50
2023-01-18T20:47:04.263Z,0.50
2023-01-18T20:49:38.322Z,0.57
2023-01-18T20:55:08.785Z,1.87
2023-01-18T20:57:35.659Z,2.17
2023-01-18T21:00:02.530Z,0.40
2023-01-18T21:02:29.426Z,0.30
2023-01-18T21:04:56.531Z,0.40
2023-01-18T21:07:23.468Z,0.53
2023-01-18T21:09:50.290Z,0.47
2023-01-18T21:12:17.661Z,0.50
2023-01-18T21:14:44.861Z,0.63
2023-01-18T21:17:11.612Z,0.93
2023-01-18T21:19:38.405Z,0.47
2023-01-18T21:22:05.321Z,0.67
2023-01-18T21:24:32.072Z,0.80
2023-01-18T21:26:58.916Z,0.40
2023-01-18T21:29:26.045Z,0.50
2023-01-18T21:31:53.008Z,0.40
2023-01-18T21:34:20.106Z,0.67
2023-01-18T21:36:49.813Z,0.40
2023-01-18T21:39:25.235Z,0.30
2023-01-18T21:42:11.466Z,0.20
2023-01-18T21:44:57.338Z,0.30
2023-01-18T21:47:25.976Z,0.40
2023-01-18T21:50:17.580Z,0.40
2023-01-18T21:53:03.837Z,0.90
2023-01-18T21:55:30.828Z,0.73
2023-01-18T21:58:16.608Z,0.40
2023-01-18T22:00:43.562Z,0.73
2023-01-18T22:03:10.340Z,0.30
2023-01-18T22:05:39.253Z,0.40
2023-01-18T22:08:07.540Z,0.20
2023-01-18T22:10:34.323Z,0.30
2023-01-18T22:13:01.111Z,0.40
2023-01-18T22:15:27.892Z,0.30
2023-01-18T22:17:54.685Z,0.30
2023-01-18T22:20:21.467Z,0.30
2023-01-18T22:22:48.425Z,0.23
2023-01-18T22:25:15.352Z,0.40
2023-01-18T22:27:42.156Z,1.40
2023-01-18T22:30:09.669Z,0.40
2023-01-18T22:32:36.461Z,0.30
2023-01-18T22:35:21.747Z,0.20
2023-01-18T22:37:48.957Z,0.40
2023-01-18T22:40:15.893Z,0.30
2023-01-18T22:42:42.675Z,0.30
2023-01-18T22:45:09.760Z,0.40
2023-01-18T22:47:36.592Z,0.43
2023-01-18T22:50:03.436Z,0.40
2023-01-18T22:52:48.662Z,0.40
2023-01-18T22:55:15.715Z,0.60
2023-01-18T22:58:01.557Z,0.40
2023-01-18T23:00:28.592Z,0.40
2023-01-18T23:02:55.316Z,0.40
2023-01-18T23:05:22.094Z,0.40
2023-01-18T23:07:48.831Z,0.30
2023-01-18T23:13:00.877Z,0.20
2023-01-18T23:15:46.592Z,0.33
2023-01-18T23:18:13.763Z,0.33
2023-01-18T23:20:40.655Z,0.20
2023-01-18T23:23:07.506Z,0.30
2023-01-18T23:25:52.988Z,0.30
2023-01-18T23:28:39.862Z,0.20
2023-01-18T23:31:14.834Z,0.37
2023-01-18T23:33:42.560Z,0.50
2023-01-18T23:36:10.912Z,0.30
2023-01-18T23:38:56.258Z,0.40
2023-01-18T23:41:41.933Z,0.30
2023-01-18T23:44:45.669Z,0.30
2023-01-18T23:47:30.973Z,0.40
2023-01-18T23:50:16.525Z,0.30
2023-01-18T23:53:02.168Z,0.40
2023-01-18T23:55:29.000Z,0.67
2023-01-18T23:57:55.760Z,0.30
